Time;durP1;ratioP1;P1;durP2;ratioP2;P2;SDS_P1;SDS_P2;PMS_P1;PMS_P2;Temp;Humidity;BMP_temperature;BMP_pressure;BME280_temperature;BME280_humidity;BME280_pressure;Samples;Min_cycle;Max_cycle;Signal;HPM_P1;HPM_P2
2021/03/08 00:00:44;;;;;;;8.77;2.17;;;28.00;95.20;;;;;;4878200;29;20977;-82
2021/03/08 00:03:12;;;;;;;9.98;2.35;;;28.10;96.10;;;;;;4888596;29;20405;-83
2021/03/08 00:05:39;;;;;;;6.95;1.88;;;28.00;95.90;;;;;;4876825;29;20430;-83
2021/03/08 00:08:07;;;;;;;8.17;2.37;;;28.20;95.10;;;;;;4877666;29;20414;-81
2021/03/08 00:10:34;;;;;;;6.88;2.35;;;28.40;94.80;;;;;;4879268;29;20398;-83
2021/03/08 00:13:01;;;;;;;6.72;1.70;;;28.70;93.50;;;;;;4878670;29;20471;-83
2021/03/08 00:15:28;;;;;;;7.78;2.20;;;29.10;93.40;;;;;;4878504;29;20405;-83
2021/03/08 00:17:55;;;;;;;5.65;1.80;;;29.70;93.60;;;;;;4876995;29;20395;-83
2021/03/08 00:20:24;;;;;;;6.78;1.85;;;29.90;91.10;;;;;;4889900;29;20451;-86
2021/03/08 00:22:52;;;;;;;5.47;1.83;;;30.20;89.00;;;;;;4893399;29;20559;-85
2021/03/08 00:25:38;;;;;;;6.20;1.90;;;31.20;92.30;;;;;;4894594;29;20397;-82
2021/03/08 00:28:05;;;;;;;4.95;2.00;;;32.10;86.60;;;;;;4895256;29;20389;-84
2021/03/08 00:30:32;;;;;;;5.65;1.77;;;32.20;79.90;;;;;;4895311;29;20421;-84
2021/03/08 00:32:59;;;;;;;10.23;1.90;;;31.90;81.40;;;;;;4893467;29;20401;-84
2021/03/08 00:35:27;;;;;;;6.10;1.83;;;32.00;77.70;;;;;;4894886;29;20465;-83
2021/03/08 00:37:54;;;;;;;6.07;1.90;;;32.20;85.10;;;;;;4893488;29;20421;-83
2021/03/08 00:40:23;;;;;;;6.45;1.83;;;32.30;77.60;;;;;;4893521;29;20397;-83
2021/03/08 00:42:50;;;;;;;10.52;2.00;;;31.90;76.00;;;;;;4889146;29;20426;-84
2021/03/08 00:45:22;;;;;;;6.78;1.58;;;31.30;78.20;;;;;;4877134;29;20529;-84
2021/03/08 00:47:50;;;;;;;5.20;1.48;;;30.70;79.50;;;;;;4885560;29;20715;-84
2021/03/08 00:50:25;;;;;;;6.65;1.67;;;30.40;78.90;;;;;;4876438;29;20477;-83
2021/03/08 00:52:52;;;;;;;6.55;1.90;;;30.20;81.50;;;;;;4876022;29;20391;-84
2021/03/08 00:55:19;;;;;;;7.70;1.60;;;30.20;81.20;;;;;;4875925;29;20387;-84
2021/03/08 00:57:47;;;;;;;8.55;1.80;;;30.20;82.30;;;;;;4876214;29;20901;-84
2021/03/08 01:00:17;;;;;;;5.47;1.90;;;30.10;82.70;;;;;;4875945;29;20508;-84
2021/03/08 01:02:44;;;;;;;7.47;1.90;;;30.20;83.10;;;;;;4875973;29;20566;-83
2021/03/08 01:05:11;;;;;;;7.40;1.90;;;30.40;84.70;;;;;;4875590;29;20423;-84
2021/03/08 01:07:38;;;;;;;9.15;1.92;;;30.60;83.40;;;;;;4875925;29;20822;-84
2021/03/08 01:10:11;;;;;;;3.70;1.70;;;30.90;81.40;;;;;;4875800;29;20879;-84
2021/03/08 01:12:38;;;;;;;5.25;1.70;;;31.00;80.40;;;;;;4886849;29;20744;-84
2021/03/08 01:15:06;;;;;;;5.38;1.65;;;31.40;80.10;;;;;;4875593;29;20395;-84
2021/03/08 01:17:33;;;;;;;5.40;1.55;;;31.40;78.50;;;;;;4876543;29;20450;-85
2021/03/08 01:20:00;;;;;;;3.45;1.60;;;31.50;79.30;;;;;;4876442;29;20415;-83
2021/03/08 01:22:27;;;;;;;4.93;1.70;;;31.00;80.50;;;;;;4876403;29;20423;-84
2021/03/08 01:24:54;;;;;;;6.60;1.73;;;30.90;82.80;;;;;;4877727;29;20422;-83
2021/03/08 01:27:21;;;;;;;4.55;1.70;;;30.60;83.40;;;;;;4875626;29;20736;-83
2021/03/08 01:29:48;;;;;;;6.15;1.77;;;30.50;85.30;;;;;;4875496;29;20394;-84
2021/03/08 01:32:15;;;;;;;6.95;1.85;;;30.40;85.20;;;;;;4875590;29;20759;-85
2021/03/08 01:34:42;;;;;;;6.63;1.73;;;30.40;83.60;;;;;;4875393;29;20407;-84
2021/03/08 01:37:09;;;;;;;7.60;1.90;;;30.10;82.00;;;;;;4874983;29;20517;-85
2021/03/08 01:39:36;;;;;;;4.80;1.73;;;30.00;81.20;;;;;;4875440;29;20395;-83
2021/03/08 01:42:03;;;;;;;5.57;1.77;;;29.90;83.50;;;;;;4857793;29;20532;-84
2021/03/08 01:44:30;;;;;;;6.45;1.70;;;29.90;82.80;;;;;;4857325;29;20396;-84
2021/03/08 01:46:57;;;;;;;5.67;1.67;;;29.90;84.20;;;;;;4869904;29;20431;-84
2021/03/08 01:49:24;;;;;;;4.25;1.40;;;30.00;83.70;;;;;;4874345;29;20480;-85
2021/03/08 01:51:51;;;;;;;6.20;1.75;;;30.20;87.80;;;;;;4875424;29;20556;-84
2021/03/08 01:54:18;;;;;;;9.50;2.08;;;30.00;86.30;;;;;;4875175;29;20458;-85
2021/03/08 01:56:45;;;;;;;12.65;1.88;;;29.70;83.50;;;;;;4874998;29;20451;-84
2021/03/08 01:59:12;;;;;;;9.18;1.95;;;29.50;86.30;;;;;;4859517;29;20403;-85
2021/03/08 02:01:39;;;;;;;7.10;1.75;;;29.30;83.80;;;;;;4874654;29;20482;-82
2021/03/08 02:04:06;;;;;;;6.10;1.60;;;29.30;85.80;;;;;;4875286;29;20446;-84
2021/03/08 02:06:33;;;;;;;5.63;1.48;;;29.40;87.10;;;;;;4874921;29;20510;-83
2021/03/08 02:09:00;;;;;;;5.00;1.65;;;29.70;84.50;;;;;;4875044;29;20384;-83
2021/03/08 02:11:27;;;;;;;8.65;1.77;;;29.80;85.10;;;;;;4875084;29;20787;-83
2021/03/08 02:14:17;;;;;;;6.20;1.67;;;29.70;82.30;;;;;;4867623;29;20403;-82
2021/03/08 02:17:14;;;;;;;6.38;1.52;;;29.60;83.70;;;;;;4873766;29;20410;-82
2021/03/08 02:20:18;;;;;;;5.35;1.50;;;29.60;85.60;;;;;;4874978;29;20427;-83
2021/03/08 02:23:23;;;;;;;6.17;1.50;;;29.80;83.20;;;;;;4874276;29;21060;-83
2021/03/08 02:26:21;;;;;;;8.10;1.43;;;30.10;83.00;;;;;;4864255;29;20418;-82
2021/03/08 02:29:00;;;;;;;4.90;1.70;;;30.30;82.60;;;;;;4872167;29;20558;-83
2021/03/08 02:31:28;;;;;;;5.50;1.70;;;30.30;85.10;;;;;;4875025;29;20395;-81
2021/03/08 02:34:02;;;;;;;6.37;1.80;;;30.40;82.10;;;;;;4873545;29;20412;-83
2021/03/08 02:36:33;;;;;;;5.90;1.60;;;30.40;80.90;;;;;;4874876;29;20426;-83
2021/03/08 02:39:10;;;;;;;5.88;1.48;;;30.30;78.90;;;;;;4874774;29;20403;-83
2021/03/08 02:41:37;;;;;;;5.35;1.77;;;30.00;81.20;;;;;;4872431;29;20481;-83
2021/03/08 02:44:09;;;;;;;4.28;1.73;;;29.70;78.20;;;;;;4875241;29;20417;-81
2021/03/08 02:46:40;;;;;;;6.50;1.98;;;29.50;81.20;;;;;;4877398;29;20406;-83
2021/03/08 02:49:14;;;;;;;8.77;1.65;;;29.40;82.90;;;;;;4863078;29;20922;-84
2021/03/08 02:51:53;;;;;;;5.85;1.70;;;29.40;81.80;;;;;;4878246;29;20751;-82
2021/03/08 02:54:23;;;;;;;4.93;1.42;;;29.30;83.00;;;;;;4878568;29;20397;-84
2021/03/08 02:56:53;;;;;;;5.82;1.70;;;29.10;81.50;;;;;;4878563;29;20402;-83
2021/03/08 02:59:22;;;;;;;6.20;1.60;;;29.00;83.70;;;;;;4878427;29;20431;-83
2021/03/08 03:01:51;;;;;;;5.53;1.73;;;28.90;82.90;;;;;;4877791;29;20427;-83
2021/03/08 03:04:20;;;;;;;6.22;1.45;;;28.80;83.40;;;;;;4877858;29;20405;-83
2021/03/08 03:06:49;;;;;;;5.87;1.63;;;28.70;81.00;;;;;;4877996;29;20399;-84
2021/03/08 03:09:18;;;;;;;5.15;1.80;;;28.60;82.40;;;;;;4877944;29;20525;-83
2021/03/08 03:11:51;;;;;;;6.53;1.63;;;28.50;83.30;;;;;;4877653;29;20489;-83
2021/03/08 03:14:20;;;;;;;7.82;1.58;;;28.30;84.40;;;;;;4878027;29;20486;-84
2021/03/08 03:16:50;;;;;;;3.60;1.55;;;28.20;84.90;;;;;;4877644;29;20399;-84
2021/03/08 03:19:20;;;;;;;5.78;1.63;;;28.00;85.60;;;;;;4877759;29;20402;-83
2021/03/08 03:21:48;;;;;;;6.70;2.20;;;27.90;84.90;;;;;;4877944;29;20471;-84
2021/03/08 03:24:15;;;;;;;7.10;1.70;;;27.70;85.40;;;;;;4878501;29;20383;-83
2021/03/08 03:26:43;;;;;;;4.17;1.43;;;27.70;86.30;;;;;;4878881;29;20395;-83
2021/03/08 03:29:13;;;;;;;6.93;1.55;;;27.50;86.70;;;;;;4878161;29;20487;-82
2021/03/08 03:31:41;;;;;;;3.78;1.63;;;27.50;86.70;;;;;;4877618;29;20444;-83
2021/03/08 03:34:09;;;;;;;4.47;1.50;;;27.40;86.20;;;;;;4883344;29;20397;-83
2021/03/08 03:36:39;;;;;;;6.55;1.85;;;27.30;87.00;;;;;;4873813;29;20428;-83
2021/03/08 03:39:09;;;;;;;5.35;1.67;;;27.20;87.40;;;;;;4858650;29;20401;-83
2021/03/08 03:41:38;;;;;;;4.97;1.40;;;27.10;88.20;;;;;;4858907;29;20427;-83
2021/03/08 03:44:06;;;;;;;7.78;1.58;;;27.00;89.00;;;;;;4861002;29;20408;-83
2021/03/08 03:46:36;;;;;;;5.70;1.70;;;27.00;89.60;;;;;;4877570;29;20379;-82
2021/03/08 03:49:03;;;;;;;5.53;1.63;;;26.90;89.50;;;;;;4877024;29;20386;-83
2021/03/08 03:51:30;;;;;;;6.03;1.60;;;26.90;89.90;;;;;;4877437;29;20419;-82
2021/03/08 03:53:57;;;;;;;7.27;1.47;;;26.90;90.00;;;;;;4875303;29;20494;-82
2021/03/08 03:56:27;;;;;;;4.67;1.47;;;26.90;89.40;;;;;;4876147;29;20419;-80
2021/03/08 03:59:19;;;;;;;5.97;1.48;;;26.80;89.40;;;;;;4876599;29;20387;-81
2021/03/08 04:01:54;;;;;;;10.50;2.17;;;26.80;89.60;;;;;;4877084;29;20794;-81
2021/03/08 04:04:44;;;;;;;5.53;1.43;;;26.70;90.20;;;;;;4876717;29;20465;-80
2021/03/08 04:07:13;;;;;;;3.50;1.55;;;26.70;90.70;;;;;;4888010;29;20503;-84
2021/03/08 04:09:45;;;;;;;7.53;1.87;;;26.60;90.70;;;;;;4872805;29;20409;-83
2021/03/08 04:12:13;;;;;;;5.13;1.48;;;26.60;90.80;;;;;;4875113;29;20418;-83
2021/03/08 04:14:42;;;;;;;6.40;1.67;;;26.60;91.50;;;;;;4864536;29;20418;-83
2021/03/08 04:17:10;;;;;;;7.63;1.92;;;26.70;91.50;;;;;;4873763;29;20875;-83
2021/03/08 04:19:40;;;;;;;6.10;1.50;;;26.80;91.40;;;;;;4874995;29;20418;-83
2021/03/08 04:22:09;;;;;;;6.85;2.00;;;26.90;90.60;;;;;;4879355;29;20426;-84
2021/03/08 04:24:39;;;;;;;7.47;1.42;;;27.00;91.60;;;;;;4890917;29;20444;-82
2021/03/08 04:27:08;;;;;;;5.55;1.67;;;27.10;91.30;;;;;;4875278;29;20419;-84
2021/03/08 04:29:38;;;;;;;4.93;1.80;;;27.20;92.00;;;;;;4875090;29;20984;-83
2021/03/08 04:32:07;;;;;;;4.78;1.70;;;27.30;91.30;;;;;;4876142;29;20430;-82
2021/03/08 04:34:36;;;;;;;3.85;1.63;;;27.30;91.80;;;;;;4878382;29;20960;-83
2021/03/08 04:37:04;;;;;;;5.95;1.80;;;27.40;91.80;;;;;;4877295;29;20411;-83
2021/03/08 04:39:35;;;;;;;6.78;1.90;;;27.30;91.90;;;;;;4887862;29;20395;-83
2021/03/08 04:42:03;;;;;;;7.88;2.22;;;27.20;92.10;;;;;;4870840;29;21062;-84
2021/03/08 04:44:32;;;;;;;5.32;1.55;;;27.00;92.50;;;;;;4894951;29;20396;-81
2021/03/08 04:47:00;;;;;;;7.32;1.88;;;26.90;93.30;;;;;;4892558;29;20388;-82
2021/03/08 04:49:27;;;;;;;7.20;2.17;;;26.80;93.80;;;;;;4860762;29;20502;-83
2021/03/08 04:51:55;;;;;;;6.47;1.98;;;26.70;93.90;;;;;;4891460;29;20408;-82
2021/03/08 04:54:22;;;;;;;7.68;1.80;;;26.60;94.10;;;;;;4891648;29;22233;-82
2021/03/08 04:56:50;;;;;;;5.38;1.70;;;26.50;94.00;;;;;;4884032;29;20402;-82
2021/03/08 04:59:17;;;;;;;5.55;1.98;;;26.40;94.40;;;;;;4875853;29;20407;-82
2021/03/08 05:01:46;;;;;;;5.47;2.10;;;26.30;94.60;;;;;;4880129;29;20413;-80
2021/03/08 05:04:16;;;;;;;5.63;1.97;;;26.20;95.00;;;;;;4887763;29;20401;-82
2021/03/08 05:06:43;;;;;;;5.63;2.03;;;26.10;95.40;;;;;;4888679;29;20415;-83
2021/03/08 05:09:13;;;;;;;4.43;1.67;;;26.00;95.40;;;;;;4879800;29;20383;-83
2021/03/08 05:11:43;;;;;;;6.57;1.80;;;26.00;96.00;;;;;;4886246;29;20873;-82
2021/03/08 05:14:12;;;;;;;5.30;1.90;;;25.90;96.00;;;;;;4873912;29;20978;-83
2021/03/08 05:16:45;;;;;;;5.22;1.88;;;25.90;96.20;;;;;;4872287;29;20412;-83
2021/03/08 05:19:14;;;;;;;4.97;1.83;;;25.90;96.80;;;;;;4877897;29;20387;-83
2021/03/08 05:21:42;;;;;;;4.38;1.90;;;25.90;96.80;;;;;;4876651;29;20415;-83
2021/03/08 05:24:11;;;;;;;6.68;2.08;;;25.90;97.10;;;;;;4874230;29;20616;-81
2021/03/08 05:26:38;;;;;;;5.45;1.70;;;25.80;97.20;;;;;;4876916;29;20413;-83
2021/03/08 05:29:07;;;;;;;6.40;1.90;;;25.80;97.50;;;;;;4890835;29;20865;-82
2021/03/08 05:31:38;;;;;;;5.70;1.77;;;25.70;97.70;;;;;;4884619;29;20414;-82
2021/03/08 05:34:06;;;;;;;6.55;1.90;;;25.70;98.00;;;;;;4891556;29;20413;-82
2021/03/08 05:36:36;;;;;;;7.33;1.87;;;25.70;98.20;;;;;;4885136;29;20482;-84
2021/03/08 05:39:04;;;;;;;7.70;1.70;;;25.70;98.00;;;;;;4874582;29;20409;-82
2021/03/08 05:41:54;;;;;;;6.10;1.80;;;25.60;98.20;;;;;;4874684;29;20447;-83
2021/03/08 05:44:23;;;;;;;5.93;1.60;;;25.60;98.30;;;;;;4872962;29;20427;-83
2021/03/08 05:47:02;;;;;;;6.68;1.98;;;25.40;98.30;;;;;;4873078;29;20939;-84
2021/03/08 05:50:16;;;;;;;5.90;1.67;;;25.40;98.00;;;;;;4874793;29;20554;-84
2021/03/08 05:53:07;;;;;;;3.38;1.52;;;25.40;98.20;;;;;;4880322;29;20771;-82
2021/03/08 05:56:10;;;;;;;4.72;1.75;;;25.30;98.70;;;;;;4874020;29;20412;-82
2021/03/08 05:59:06;;;;;;;6.83;1.83;;;25.30;99.10;;;;;;4875268;29;20419;-82
2021/03/08 06:02:01;;;;;;;6.97;1.40;;;25.20;97.00;;;;;;4876654;29;20423;-83
2021/03/08 06:05:13;;;;;;;6.57;1.17;;;24.50;94.30;;;;;;4872851;29;20402;-84
2021/03/08 06:08:17;;;;;;;5.40;1.20;;;23.70;94.90;;;;;;4876011;29;20405;-83
2021/03/08 06:11:08;;;;;;;4.30;1.17;;;22.90;97.60;;;;;;4873968;29;20406;-84
2021/03/08 06:13:52;;;;;;;24.75;5.43;;;22.30;99.30;;;;;;4876255;29;20851;-83
2021/03/08 06:16:31;;;;;;;20.48;5.25;;;21.70;99.90;;;;;;4873536;29;20418;-83
2021/03/08 06:19:00;;;;;;;20.33;4.53;;;21.10;99.90;;;;;;4878101;29;20867;-84
2021/03/08 06:21:27;;;;;;;24.40;5.03;;;20.50;99.90;;;;;;4878182;29;20423;-83
2021/03/08 06:23:55;;;;;;;14.80;3.35;;;20.00;99.90;;;;;;4883390;29;20731;-85
2021/03/08 06:26:22;;;;;;;15.23;3.50;;;19.90;99.90;;;;;;4882517;29;20749;-84
2021/03/08 06:28:50;;;;;;;4.30;1.80;;;19.70;99.90;;;;;;4895822;29;20393;-83
2021/03/08 06:31:19;;;;;;;6.78;1.88;;;19.60;99.90;;;;;;4891662;29;20429;-84
2021/03/08 06:33:46;;;;;;;10.02;2.78;;;19.70;99.90;;;;;;4883299;29;20457;-83
2021/03/08 06:36:14;;;;;;;7.53;2.88;;;19.90;99.90;;;;;;4882076;29;20486;-82
2021/03/08 06:38:42;;;;;;;11.52;3.30;;;20.00;99.90;;;;;;4886490;29;20486;-83
2021/03/08 06:41:09;;;;;;;10.57;3.17;;;20.20;99.90;;;;;;4880440;29;20461;-83
2021/03/08 06:43:37;;;;;;;10.80;2.60;;;20.20;99.90;;;;;;4881457;29;20407;-84
2021/03/08 06:46:04;;;;;;;12.73;2.65;;;20.20;99.90;;;;;;4880420;29;20561;-84
2021/03/08 06:48:32;;;;;;;12.17;2.77;;;20.20;99.90;;;;;;4879684;29;20398;-85
2021/03/08 06:51:09;;;;;;;9.45;2.22;;;20.20;99.90;;;;;;4879704;29;20395;-84
2021/03/08 06:53:36;;;;;;;8.90;2.90;;;20.20;99.90;;;;;;4878686;29;20407;-84
2021/03/08 06:56:17;;;;;;;9.07;2.50;;;20.10;99.90;;;;;;4878317;29;20418;-84
2021/03/08 06:59:10;;;;;;;11.57;2.47;;;20.10;99.90;;;;;;4876423;29;20415;-84
2021/03/08 07:01:39;;;;;;;5.43;2.10;;;20.00;99.90;;;;;;4874177;29;20422;-85
2021/03/08 07:04:27;;;;;;;7.40;2.10;;;20.10;99.90;;;;;;4878249;29;20435;-83
2021/03/08 07:07:03;;;;;;;7.05;2.30;;;20.20;99.90;;;;;;4878843;29;20399;-84
2021/03/08 07:09:31;;;;;;;3.55;2.30;;;20.30;99.90;;;;;;4877716;29;20463;-85
2021/03/08 07:12:11;;;;;;;6.53;2.60;;;20.40;99.90;;;;;;4877259;29;20437;-83
2021/03/08 07:14:41;;;;;;;5.40;2.20;;;20.50;99.90;;;;;;4868319;29;20486;-84
2021/03/08 07:17:36;;;;;;;5.72;2.20;;;20.50;99.90;;;;;;4877417;29;20391;-85
2021/03/08 07:20:09;;;;;;;5.00;1.88;;;20.50;99.90;;;;;;4877765;29;20788;-84
2021/03/08 07:22:43;;;;;;;7.20;2.00;;;20.60;99.90;;;;;;4876311;29;20859;-84
2021/03/08 07:25:15;;;;;;;4.93;1.90;;;20.50;99.90;;;;;;4877364;29;20409;-85
2021/03/08 07:27:48;;;;;;;4.00;2.05;;;20.40;99.90;;;;;;4876071;29;20906;-85
2021/03/08 07:30:17;;;;;;;5.18;2.45;;;20.50;99.90;;;;;;4875404;29;20403;-85
2021/03/08 07:33:04;;;;;;;6.75;2.45;;;20.50;99.90;;;;;;4876545;29;20450;-84
2021/03/08 07:35:34;;;;;;;5.75;2.35;;;20.50;99.90;;;;;;4873182;29;20472;-84
2021/03/08 07:38:01;;;;;;;6.88;2.45;;;20.50;99.90;;;;;;4876052;29;22151;-84
2021/03/08 07:40:28;;;;;;;6.47;2.47;;;20.60;99.90;;;;;;4875490;29;20436;-84
2021/03/08 07:42:55;;;;;;;7.82;2.53;;;20.60;99.90;;;;;;4876892;29;20433;-85
2021/03/08 07:45:39;;;;;;;6.10;2.60;;;20.60;99.90;;;;;;4876773;29;20870;-84
2021/03/08 07:48:17;;;;;;;6.07;2.40;;;20.60;99.90;;;;;;4872997;29;20414;-83
2021/03/08 07:50:46;;;;;;;5.35;2.33;;;20.70;99.90;;;;;;4876276;29;20479;-83
2021/03/08 07:53:34;;;;;;;5.97;1.92;;;20.70;99.90;;;;;;4876469;29;20419;-84
2021/03/08 07:56:06;;;;;;;6.18;2.30;;;20.60;99.90;;;;;;4877007;29;20411;-84
2021/03/08 07:58:35;;;;;;;5.10;2.22;;;20.60;99.90;;;;;;4876155;29;20411;-84
2021/03/08 08:01:04;;;;;;;6.90;2.78;;;20.50;99.90;;;;;;4878088;29;20875;-85
2021/03/08 08:03:32;;;;;;;4.05;2.20;;;20.50;99.90;;;;;;4875357;29;20764;-86
2021/03/08 08:06:08;;;;;;;7.35;1.92;;;20.60;99.90;;;;;;4876920;29;20442;-85
2021/03/08 08:08:43;;;;;;;5.28;2.08;;;20.60;99.90;;;;;;4875657;29;20415;-85
2021/03/08 08:11:11;;;;;;;5.78;2.20;;;20.60;99.90;;;;;;4876006;29;20895;-85
2021/03/08 08:14:04;;;;;;;6.05;1.95;;;20.60;99.90;;;;;;4876774;29;21146;-85
2021/03/08 08:16:33;;;;;;;5.05;2.03;;;20.60;99.90;;;;;;4874868;29;20414;-84
2021/03/08 08:19:05;;;;;;;4.53;1.90;;;20.60;99.90;;;;;;4876787;29;20494;-85
2021/03/08 08:21:42;;;;;;;6.75;2.00;;;20.70;99.90;;;;;;4884047;29;20438;-85
2021/03/08 08:24:27;;;;;;;5.63;1.80;;;20.70;99.90;;;;;;4871557;29;20551;-86
2021/03/08 08:26:57;;;;;;;7.70;2.17;;;20.70;99.90;;;;;;4872365;29;20473;-85
2021/03/08 08:29:25;;;;;;;6.40;1.85;;;20.70;99.90;;;;;;4872909;29;20493;-86
2021/03/08 08:32:02;;;;;;;3.63;1.63;;;20.80;99.90;;;;;;4874184;29;20482;-86
2021/03/08 08:34:45;;;;;;;5.78;1.90;;;20.80;99.90;;;;;;4871767;29;20422;-85
2021/03/08 08:37:17;;;;;;;4.93;2.00;;;20.90;99.90;;;;;;4873386;29;20460;-85
2021/03/08 08:40:05;;;;;;;5.60;2.00;;;20.80;99.90;;;;;;4872406;29;20474;-87
2021/03/08 08:42:34;;;;;;;5.07;1.85;;;20.70;99.90;;;;;;4874570;29;20426;-86
2021/03/08 08:45:27;;;;;;;4.35;1.88;;;20.70;99.90;;;;;;4873900;29;20443;-86
2021/03/08 08:48:14;;;;;;;6.45;1.80;;;20.70;99.90;;;;;;4872079;29;20422;-87
2021/03/08 08:50:47;;;;;;;6.05;2.00;;;20.70;99.90;;;;;;4869235;29;20411;-86
2021/03/08 08:53:38;;;;;;;8.35;1.80;;;20.70;99.90;;;;;;4872328;29;20517;-86
2021/03/08 08:56:07;;;;;;;3.95;1.80;;;20.70;99.90;;;;;;4873135;29;20415;-86
2021/03/08 08:58:52;;;;;;;5.18;1.80;;;20.70;99.90;;;;;;4875559;29;20399;-86
2021/03/08 09:01:26;;;;;;;4.30;1.90;;;20.70;99.90;;;;;;4875290;29;20474;-86
2021/03/08 09:04:00;;;;;;;7.82;2.00;;;20.70;99.90;;;;;;4875519;29;20917;-86
2021/03/08 09:07:02;;;;;;;8.95;2.35;;;20.60;99.90;;;;;;4873785;29;20421;-85
2021/03/08 09:09:32;;;;;;;5.32;1.95;;;20.60;99.90;;;;;;4866179;29;20426;-86
2021/03/08 09:12:03;;;;;;;4.80;1.65;;;20.60;99.90;;;;;;4872893;29;20910;-85
2021/03/08 09:14:34;;;;;;;5.53;1.90;;;20.60;99.90;;;;;;4873789;29;20489;-85
2021/03/08 09:17:26;;;;;;;5.03;1.75;;;20.60;99.90;;;;;;4872332;29;20514;-85
2021/03/08 09:19:56;;;;;;;4.72;1.60;;;20.60;99.90;;;;;;4876015;29;20422;-86
2021/03/08 09:22:29;;;;;;;6.40;1.85;;;20.50;99.90;;;;;;4860999;29;20424;-86
2021/03/08 09:24:56;;;;;;;6.93;1.95;;;20.50;99.90;;;;;;4866697;29;20414;-85
2021/03/08 09:27:35;;;;;;;6.38;1.80;;;20.40;99.90;;;;;;4873166;29;20430;-87
2021/03/08 09:30:11;;;;;;;4.40;1.75;;;20.50;99.90;;;;;;4859322;29;20913;-86
2021/03/08 09:32:55;;;;;;;5.43;1.75;;;20.50;99.90;;;;;;4873130;29;20387;-86
2021/03/08 09:35:24;;;;;;;5.90;1.90;;;20.50;99.90;;;;;;4880163;29;20439;-86
2021/03/08 09:37:54;;;;;;;5.75;2.25;;;20.50;99.90;;;;;;4872921;29;20498;-85
2021/03/08 09:40:27;;;;;;;6.18;2.05;;;20.40;99.90;;;;;;4872123;29;20954;-86
2021/03/08 09:42:54;;;;;;;4.90;1.88;;;20.40;99.90;;;;;;4870343;29;20434;-85
2021/03/08 09:45:34;;;;;;;5.68;1.65;;;20.40;99.90;;;;;;4870820;29;20636;-86
2021/03/08 09:48:04;;;;;;;4.20;1.83;;;20.50;99.90;;;;;;4870575;29;20421;-86
2021/03/08 09:50:37;;;;;;;4.95;2.20;;;20.50;99.90;;;;;;4873790;29;20399;-85
2021/03/08 09:53:05;;;;;;;4.80;2.17;;;20.50;99.90;;;;;;4872949;29;20482;-86
2021/03/08 09:55:35;;;;;;;5.53;1.73;;;20.50;99.90;;;;;;4878064;29;20403;-86
2021/03/08 09:58:14;;;;;;;4.82;2.00;;;20.50;99.90;;;;;;4886700;29;20417;-85
2021/03/08 10:00:42;;;;;;;8.85;2.10;;;20.60;99.90;;;;;;4875118;29;20411;-86
2021/03/08 10:03:11;;;;;;;4.25;1.80;;;20.60;99.90;;;;;;4874614;29;20422;-84
2021/03/08 10:05:42;;;;;;;8.05;2.00;;;20.60;99.90;;;;;;4873754;29;20416;-86
2021/03/08 10:08:11;;;;;;;5.13;1.80;;;20.60;99.90;;;;;;4872190;29;20407;-85
2021/03/08 10:10:53;;;;;;;3.65;1.73;;;20.70;99.90;;;;;;4870589;29;20409;-85
2021/03/08 10:13:22;;;;;;;5.80;1.85;;;20.60;99.90;;;;;;4873749;29;20509;-85
2021/03/08 10:15:50;;;;;;;3.90;1.88;;;20.60;99.90;;;;;;4875038;29;20401;-84
2021/03/08 10:18:22;;;;;;;7.03;2.13;;;20.60;99.90;;;;;;4887271;29;20780;-84
2021/03/08 10:21:00;;;;;;;6.67;1.90;;;20.70;99.90;;;;;;4873108;29;21134;-84
2021/03/08 10:23:32;;;;;;;5.47;1.90;;;20.70;99.90;;;;;;4873614;29;20450;-86
2021/03/08 10:26:16;;;;;;;5.90;1.80;;;20.70;99.90;;;;;;4874189;29;20405;-86
2021/03/08 10:28:51;;;;;;;6.68;1.98;;;20.60;99.90;;;;;;4865946;29;20395;-84
2021/03/08 10:31:38;;;;;;;6.63;1.67;;;20.70;99.90;;;;;;4872938;29;20406;-86
2021/03/08 10:34:11;;;;;;;6.30;1.80;;;20.60;99.90;;;;;;4875103;29;20413;-85
2021/03/08 10:36:41;;;;;;;4.82;2.00;;;20.60;99.90;;;;;;4890778;29;21069;-86
2021/03/08 10:39:13;;;;;;;4.07;1.60;;;20.60;99.90;;;;;;4888175;29;20433;-85
2021/03/08 10:41:43;;;;;;;3.47;1.55;;;20.60;99.90;;;;;;4871586;29;20407;-85
2021/03/08 10:44:17;;;;;;;4.82;1.73;;;20.60;99.90;;;;;;4870336;29;20495;-84
2021/03/08 10:46:44;;;;;;;5.78;1.92;;;20.60;99.90;;;;;;4871914;29;20739;-84
2021/03/08 10:49:11;;;;;;;3.33;1.25;;;20.60;99.90;;;;;;4871507;29;20419;-84
2021/03/08 10:51:40;;;;;;;5.47;1.52;;;20.60;99.90;;;;;;4869091;29;20406;-84
2021/03/08 10:54:09;;;;;;;4.35;1.45;;;20.60;99.90;;;;;;4870645;29;20411;-84
2021/03/08 10:56:38;;;;;;;5.00;1.63;;;20.60;99.90;;;;;;4872714;29;20817;-85
2021/03/08 10:59:21;;;;;;;5.65;1.58;;;20.60;99.90;;;;;;4870186;29;21247;-84
2021/03/08 11:02:01;;;;;;;4.10;1.40;;;20.60;99.90;;;;;;4871237;29;20930;-84
2021/03/08 11:04:28;;;;;;;7.72;1.80;;;20.60;99.90;;;;;;4860607;29;20406;-84
2021/03/08 11:06:55;;;;;;;2.83;1.33;;;20.60;99.90;;;;;;4874974;29;20432;-84
2021/03/08 11:09:28;;;;;;;3.13;1.48;;;20.50;99.90;;;;;;4860718;29;20471;-84
2021/03/08 11:11:55;;;;;;;6.18;1.67;;;20.50;99.90;;;;;;4875833;29;20410;-84
2021/03/08 11:14:23;;;;;;;4.47;1.20;;;20.50;99.90;;;;;;4875882;29;20835;-83
2021/03/08 11:16:54;;;;;;;3.42;1.60;;;20.50;99.90;;;;;;4875632;29;20402;-83
2021/03/08 11:19:23;;;;;;;2.90;1.42;;;20.50;99.90;;;;;;4878393;29;20410;-83
2021/03/08 11:22:01;;;;;;;4.82;1.85;;;20.50;99.90;;;;;;4864967;29;20427;-84
2021/03/08 11:24:32;;;;;;;3.35;1.40;;;20.40;99.90;;;;;;4875200;29;20414;-83
2021/03/08 11:27:16;;;;;;;4.07;1.30;;;20.40;99.90;;;;;;4874179;29;20415;-83
2021/03/08 11:30:00;;;;;;;3.73;1.60;;;20.40;99.90;;;;;;4873908;29;20411;-83
2021/03/08 11:32:30;;;;;;;4.07;1.30;;;20.40;99.90;;;;;;4878357;29;20796;-83
2021/03/08 11:34:57;;;;;;;3.17;1.33;;;20.50;99.90;;;;;;4877140;29;21542;-84
2021/03/08 11:37:27;;;;;;;6.45;1.63;;;20.40;99.90;;;;;;4876416;29;20414;-82
2021/03/08 11:39:58;;;;;;;8.27;1.60;;;20.40;99.90;;;;;;4876181;29;20450;-82
2021/03/08 11:42:29;;;;;;;2.93;1.37;;;20.30;99.90;;;;;;4876371;29;20427;-82
2021/03/08 11:44:57;;;;;;;5.60;1.63;;;20.40;99.90;;;;;;4876944;29;20422;-82
2021/03/08 11:47:24;;;;;;;3.25;1.42;;;20.30;99.90;;;;;;4877090;29;20407;-82
2021/03/08 11:49:51;;;;;;;4.13;1.67;;;20.30;99.90;;;;;;4877777;29;20411;-82
2021/03/08 11:52:18;;;;;;;3.50;1.55;;;20.30;99.90;;;;;;4877650;29;20440;-82
2021/03/08 11:54:45;;;;;;;5.15;1.58;;;20.30;99.90;;;;;;4879116;29;20418;-82
2021/03/08 11:57:12;;;;;;;3.77;1.37;;;20.20;99.90;;;;;;4871972;29;20407;-82
2021/03/08 11:59:39;;;;;;;3.17;1.37;;;20.20;99.90;;;;;;4875894;29;20387;-84
2021/03/08 12:02:06;;;;;;;3.10;1.30;;;20.30;99.90;;;;;;4878700;29;20429;-83
2021/03/08 12:04:33;;;;;;;3.57;1.60;;;20.30;99.90;;;;;;4876522;29;20839;-83
2021/03/08 12:07:01;;;;;;;4.50;1.70;;;20.40;99.90;;;;;;4875276;29;20877;-82
2021/03/08 12:09:28;;;;;;;3.92;1.50;;;20.40;99.90;;;;;;4876541;29;20425;-83
2021/03/08 12:11:54;;;;;;;5.40;1.67;;;20.40;99.90;;;;;;4876380;29;20447;-83
2021/03/08 12:14:21;;;;;;;4.25;1.45;;;20.40;99.90;;;;;;4876690;29;20391;-83
2021/03/08 12:16:48;;;;;;;3.55;1.20;;;20.40;99.90;;;;;;4875877;29;20779;-83
2021/03/08 12:19:17;;;;;;;6.35;1.38;;;20.40;99.90;;;;;;4873553;29;20419;-83
2021/03/08 12:21:47;;;;;;;4.20;1.50;;;20.40;99.90;;;;;;4870204;29;20426;-83
2021/03/08 12:24:14;;;;;;;3.97;1.53;;;20.40;99.90;;;;;;4871619;29;20487;-82
2021/03/08 12:26:41;;;;;;;3.38;1.20;;;20.40;99.90;;;;;;4871439;29;20446;-83
2021/03/08 12:29:08;;;;;;;3.88;1.45;;;20.40;99.90;;;;;;4875232;29;20407;-83
2021/03/08 12:31:35;;;;;;;3.55;1.45;;;20.40;99.90;;;;;;4875129;29;20459;-82
2021/03/08 12:34:02;;;;;;;2.35;1.33;;;20.40;99.90;;;;;;4861900;29;20434;-80
2021/03/08 12:36:29;;;;;;;3.20;1.30;;;20.40;99.90;;;;;;4875923;29;20439;-82
2021/03/08 12:38:56;;;;;;;2.97;1.50;;;20.40;99.90;;;;;;4873822;29;20411;-82
2021/03/08 12:41:23;;;;;;;2.13;1.30;;;20.40;99.90;;;;;;4875081;29;20415;-82
2021/03/08 12:43:51;;;;;;;3.08;1.20;;;20.40;99.90;;;;;;4871328;29;20421;-82
2021/03/08 12:46:19;;;;;;;4.00;1.50;;;20.30;99.90;;;;;;4875145;29;20403;-81
2021/03/08 12:48:46;;;;;;;2.35;1.25;;;20.30;99.90;;;;;;4873218;29;20437;-81
2021/03/08 12:51:13;;;;;;;3.22;1.17;;;20.30;99.90;;;;;;4875921;29;20422;-82
2021/03/08 12:53:41;;;;;;;1.63;0.98;;;20.30;99.90;;;;;;4871639;29;20426;-82
2021/03/08 12:56:08;;;;;;;3.10;1.30;;;20.30;99.90;;;;;;4871977;29;21204;-82
2021/03/08 12:58:35;;;;;;;3.45;1.45;;;20.30;99.90;;;;;;4872530;29;20419;-83
2021/03/08 13:01:02;;;;;;;2.75;1.58;;;20.30;99.90;;;;;;4870402;29;20410;-81
2021/03/08 13:03:29;;;;;;;2.23;1.27;;;20.30;99.90;;;;;;4871659;29;20926;-83
2021/03/08 13:05:56;;;;;;;2.37;1.30;;;20.30;99.90;;;;;;4870147;29;20391;-81
2021/03/08 13:08:23;;;;;;;6.27;1.90;;;20.30;99.90;;;;;;4870231;29;20426;-82
2021/03/08 13:10:50;;;;;;;7.38;1.75;;;20.20;99.90;;;;;;4871828;29;20517;-81